createdAt,value
2018-11-05T00:02:10.017Z,24.00
2018-11-05T00:04:39.376Z,27.62
2018-11-05T00:07:08.184Z,27.62
2018-11-05T00:09:37.159Z,24.98
2018-11-05T00:12:06.838Z,23.92
2018-11-05T00:14:35.572Z,26.00
2018-11-05T00:17:04.341Z,24.67
2018-11-05T00:19:33.210Z,28.25
2018-11-05T00:22:02.417Z,27.25
2018-11-05T00:24:31.418Z,28.40
2018-11-05T00:27:00.349Z,26.73
2018-11-05T00:29:29.415Z,29.42
2018-11-05T00:31:58.099Z,22.27
2018-11-05T00:34:27.022Z,27.77
2018-11-05T00:36:55.881Z,26.62
2018-11-05T00:39:24.862Z,34.75
2018-11-05T00:41:54.034Z,25.68
2018-11-05T00:44:22.870Z,22.62
2018-11-05T00:46:52.256Z,30.50
2018-11-05T00:49:21.133Z,28.90
2018-11-05T00:51:50.051Z,30.77
2018-11-05T00:54:18.797Z,27.48
2018-11-05T00:56:47.609Z,29.63
2018-11-05T00:59:17.471Z,30.90
2018-11-05T01:01:48.075Z,30.35
2018-11-05T01:04:17.194Z,29.18
2018-11-05T01:06:47.268Z,26.60
2018-11-05T01:09:16.971Z,29.23
2018-11-05T01:11:46.194Z,28.40
2018-11-05T01:14:14.977Z,34.55
2018-11-05T01:16:43.834Z,33.78
2018-11-05T01:19:12.659Z,28.47
2018-11-05T01:21:41.468Z,32.08
2018-11-05T01:24:10.327Z,31.80
2018-11-05T01:26:39.329Z,35.38
2018-11-05T01:29:08.355Z,25.77
2018-11-05T01:31:37.279Z,28.65
2018-11-05T01:34:06.097Z,36.50
2018-11-05T01:36:34.973Z,32.60
2018-11-05T01:39:04.198Z,30.05
2018-11-05T01:41:33.188Z,31.40
2018-11-05T01:44:01.868Z,29.98
2018-11-05T01:46:30.571Z,29.85
2018-11-05T01:48:59.346Z,34.70
2018-11-05T01:51:28.054Z,29.15
2018-11-05T01:53:57.031Z,30.62
2018-11-05T01:56:25.757Z,31.25
2018-11-05T01:58:54.466Z,32.75
2018-11-05T02:01:23.320Z,41.55
2018-11-05T02:03:52.083Z,33.05
2018-11-05T02:06:20.771Z,27.77
2018-11-05T02:08:49.729Z,31.35
2018-11-05T02:11:18.362Z,29.42
2018-11-05T02:13:47.151Z,30.35
2018-11-05T02:16:15.820Z,31.20
2018-11-05T02:18:44.501Z,30.45
2018-11-05T02:21:13.252Z,32.80
2018-11-05T02:23:42.040Z,31.73
2018-11-05T02:26:11.132Z,31.42
2018-11-05T02:31:23.969Z,29.27
2018-11-05T02:33:53.157Z,32.05
2018-11-05T02:36:21.923Z,24.37
2018-11-05T02:38:51.951Z,31.95
2018-11-05T02:41:21.595Z,26.65
2018-11-05T02:43:50.339Z,29.55
2018-11-05T02:46:19.200Z,26.33
2018-11-05T02:48:47.980Z,31.07
2018-11-05T02:51:16.756Z,23.75
2018-11-05T02:53:45.575Z,31.93
2018-11-05T02:56:14.390Z,31.42
2018-11-05T02:58:43.115Z,31.17
2018-11-05T03:01:12.312Z,28.12
2018-11-05T03:03:41.156Z,33.20
2018-11-05T03:06:09.859Z,26.10
2018-11-05T03:08:39.228Z,31.25
2018-11-05T03:11:08.097Z,31.87
2018-11-05T03:13:38.376Z,26.90
2018-11-05T03:16:07.443Z,26.07
2018-11-05T03:18:36.098Z,27.02
2018-11-05T03:21:04.775Z,24.67
2018-11-05T03:23:33.403Z,28.20
2018-11-05T03:26:02.627Z,24.70
2018-11-05T03:28:31.319Z,32.23
2018-11-05T03:31:00.241Z,31.62
2018-11-05T03:33:29.152Z,26.77
2018-11-05T03:35:59.587Z,26.30
2018-11-05T03:38:28.543Z,30.20
2018-11-05T03:40:57.845Z,28.20
2018-11-05T03:43:26.949Z,31.87
2018-11-05T03:45:56.381Z,26.12
2018-11-05T03:48:25.207Z,26.35
2018-11-05T03:50:54.177Z,26.17
2018-11-05T03:53:22.924Z,28.85
2018-11-05T03:55:52.360Z,27.42
2018-11-05T03:58:21.013Z,30.12
2018-11-05T04:00:49.816Z,23.25
2018-11-05T04:03:18.723Z,25.52
2018-11-05T04:05:47.503Z,23.22
2018-11-05T04:08:16.225Z,23.60
2018-11-05T04:10:45.039Z,27.37
2018-11-05T04:13:14.025Z,26.25
2018-11-05T04:15:42.980Z,27.35
2018-11-05T04:18:11.736Z,25.88
2018-11-05T04:20:40.563Z,29.60
2018-11-05T04:23:09.287Z,29.02
2018-11-05T04:25:38.027Z,27.98
2018-11-05T04:28:07.014Z,26.12
2018-11-05T04:30:35.772Z,28.17
2018-11-05T04:33:04.503Z,28.02
2018-11-05T04:35:33.130Z,32.40
2018-11-05T04:38:02.113Z,27.58
2018-11-05T04:40:30.856Z,31.50
2018-11-05T04:42:59.506Z,29.63
2018-11-05T04:45:28.284Z,31.80
2018-11-05T04:47:57.021Z,26.42
2018-11-05T04:50:25.678Z,34.90
2018-11-05T04:52:54.371Z,28.85
2018-11-05T04:55:23.096Z,34.43
2018-11-05T04:57:51.802Z,28.57
2018-11-05T05:00:23.698Z,32.25
2018-11-05T05:02:52.450Z,32.75
2018-11-05T05:05:21.408Z,37.90
2018-11-05T05:07:50.113Z,37.95
2018-11-05T05:10:18.850Z,33.13
2018-11-05T05:12:47.655Z,32.33
2018-11-05T05:15:16.708Z,38.40
2018-11-05T05:17:45.976Z,40.43
2018-11-05T05:20:16.647Z,37.73
2018-11-05T05:22:45.693Z,45.33
2018-11-05T05:25:14.730Z,40.50
2018-11-05T05:27:43.724Z,39.63
2018-11-05T05:30:18.245Z,44.20
2018-11-05T05:32:48.040Z,41.42
2018-11-05T05:35:17.486Z,42.23
2018-11-05T05:37:46.376Z,36.28
2018-11-05T05:40:15.191Z,40.70
2018-11-05T05:42:44.105Z,43.55
2018-11-05T05:45:13.864Z,37.35
2018-11-05T05:47:43.694Z,40.45
2018-11-05T05:50:15.790Z,46.80
2018-11-05T05:52:45.583Z,42.65
2018-11-05T05:55:14.608Z,41.13
2018-11-05T05:57:44.736Z,40.12
2018-11-05T06:00:16.195Z,44.03
2018-11-05T06:02:44.938Z,38.42
2018-11-05T06:05:14.583Z,38.25
2018-11-05T06:07:43.944Z,42.15
2018-11-05T06:10:14.203Z,41.58
2018-11-05T06:12:42.857Z,38.13
2018-11-05T06:15:13.425Z,42.90
2018-11-05T06:17:42.399Z,43.60
2018-11-05T06:20:14.318Z,47.55
2018-11-05T06:22:46.896Z,39.58
2018-11-05T06:25:15.872Z,41.13
2018-11-05T06:27:44.641Z,50.28
2018-11-05T06:30:17.479Z,45.85
2018-11-05T06:32:48.803Z,47.67
2018-11-05T06:35:18.350Z,42.80
2018-11-05T06:37:47.100Z,40.98
2018-11-05T06:40:17.667Z,44.42
2018-11-05T06:42:47.013Z,39.78
2018-11-05T06:45:17.077Z,41.73
2018-11-05T06:47:46.434Z,40.17
2018-11-05T06:50:18.139Z,43.75
2018-11-05T06:52:46.948Z,37.67
2018-11-05T06:55:16.790Z,47.33
2018-11-05T06:57:45.823Z,51.45
2018-11-05T07:00:16.444Z,46.48
2018-11-05T07:02:45.893Z,41.95
2018-11-05T07:05:15.282Z,43.83
2018-11-05T07:07:44.029Z,39.20
2018-11-05T07:10:14.526Z,44.38
2018-11-05T07:12:44.580Z,51.23
2018-11-05T07:15:14.582Z,41.48
2018-11-05T07:17:45.132Z,40.43
2018-11-05T07:20:15.244Z,44.67
2018-11-05T07:22:44.615Z,46.30
2018-11-05T07:25:15.217Z,48.83
2018-11-05T07:27:44.513Z,41.42
2018-11-05T07:30:17.605Z,55.08
2018-11-05T07:32:47.099Z,46.75
2018-11-05T07:35:16.912Z,46.30
2018-11-05T07:37:46.155Z,47.03
2018-11-05T07:40:17.644Z,47.17
2018-11-05T07:42:46.470Z,54.08
2018-11-05T07:45:22.711Z,45.85
2018-11-05T07:47:51.715Z,69.72
2018-11-05T07:50:22.362Z,54.50
2018-11-05T07:52:52.165Z,41.75
2018-11-05T07:55:21.394Z,44.73
2018-11-05T07:57:51.288Z,42.13
2018-11-05T08:00:25.552Z,46.20
2018-11-05T08:02:56.776Z,46.30
2018-11-05T08:05:25.771Z,47.90
2018-11-05T08:07:55.031Z,45.23
2018-11-05T08:10:25.869Z,49.58
2018-11-05T08:12:54.751Z,53.10
2018-11-05T08:15:24.973Z,42.08
2018-11-05T08:17:54.285Z,45.15
2018-11-05T08:20:23.405Z,42.78
2018-11-05T08:22:53.387Z,43.13
2018-11-05T08:25:22.341Z,42.60
2018-11-05T08:27:51.547Z,43.78
2018-11-05T08:30:22.516Z,46.02
2018-11-05T08:32:51.701Z,44.35
2018-11-05T08:35:22.277Z,42.45
2018-11-05T08:37:51.645Z,43.33
2018-11-05T08:40:23.149Z,42.85
2018-11-05T08:42:53.929Z,47.60
2018-11-05T08:45:24.732Z,42.17
2018-11-05T08:47:54.269Z,40.50
2018-11-05T08:50:24.738Z,44.83
2018-11-05T08:52:53.661Z,37.08
2018-11-05T08:55:23.982Z,42.50
2018-11-05T08:57:53.632Z,43.73
2018-11-05T09:00:27.858Z,39.65
2018-11-05T09:02:57.241Z,41.55
2018-11-05T09:05:26.284Z,37.98
2018-11-05T09:07:55.865Z,41.48
2018-11-05T09:10:25.813Z,38.02
2018-11-05T09:12:55.308Z,32.63
2018-11-05T09:15:24.944Z,39.55
2018-11-05T09:17:53.888Z,35.83
2018-11-05T09:20:22.649Z,34.92
2018-11-05T09:22:52.043Z,35.05
2018-11-05T09:25:20.818Z,32.50
2018-11-05T09:27:49.646Z,31.37
2018-11-05T09:30:22.813Z,31.97
2018-11-05T09:32:51.606Z,30.32
2018-11-05T09:35:20.932Z,29.70
2018-11-05T09:37:49.735Z,31.25
2018-11-05T09:40:26.431Z,28.15
2018-11-05T09:42:55.260Z,31.90
2018-11-05T09:45:26.642Z,32.25
2018-11-05T09:47:55.400Z,28.38
2018-11-05T09:50:24.068Z,29.55
2018-11-05T09:52:52.756Z,24.55
2018-11-05T09:55:21.537Z,29.05
2018-11-05T09:57:50.474Z,24.50
2018-11-05T10:00:21.665Z,26.07
2018-11-05T10:02:55.617Z,27.77
2018-11-05T10:05:26.481Z,34.80
2018-11-05T10:07:55.241Z,27.55
2018-11-05T10:10:24.133Z,28.15
2018-11-05T10:12:52.823Z,26.60
2018-11-05T10:15:21.843Z,24.75
2018-11-05T10:17:50.494Z,22.93
2018-11-05T10:20:22.545Z,21.73
2018-11-05T10:22:51.337Z,25.97
2018-11-05T10:25:20.543Z,24.47
2018-11-05T10:27:50.142Z,21.00
2018-11-05T10:30:21.974Z,28.42
2018-11-05T10:32:50.862Z,28.98
2018-11-05T10:35:20.818Z,21.23
2018-11-05T10:37:49.709Z,19.92
2018-11-05T10:40:20.080Z,31.95
2018-11-05T10:42:49.396Z,23.35
2018-11-05T10:45:19.134Z,25.52
2018-11-05T10:47:48.112Z,22.85
2018-11-05T10:50:17.875Z,27.77
2018-11-05T10:52:50.095Z,23.27
2018-11-05T10:55:18.831Z,26.37
2018-11-05T10:57:47.864Z,20.75
2018-11-05T11:00:26.956Z,22.50
2018-11-05T11:03:01.237Z,20.48
2018-11-05T11:05:31.438Z,27.05
2018-11-05T11:08:00.967Z,24.20
2018-11-05T11:10:33.137Z,21.73
2018-11-05T11:13:01.930Z,23.60
2018-11-05T11:15:30.817Z,20.85
2018-11-05T11:17:59.548Z,19.00
2018-11-05T11:20:28.256Z,26.90
2018-11-05T11:22:57.130Z,17.47
2018-11-05T11:25:25.866Z,21.90
2018-11-05T11:27:54.925Z,22.90
2018-11-05T11:30:23.552Z,23.83
2018-11-05T11:32:52.958Z,22.43
2018-11-05T11:35:21.672Z,21.57
2018-11-05T11:37:50.812Z,18.20
2018-11-05T11:40:20.845Z,18.27
2018-11-05T11:42:50.016Z,22.60
2018-11-05T11:45:19.972Z,21.60
2018-11-05T11:47:48.747Z,19.33
2018-11-05T11:50:18.193Z,25.17
2018-11-05T11:52:47.469Z,17.70
2018-11-05T11:55:17.744Z,20.20
2018-11-05T11:57:46.758Z,20.37
2018-11-05T12:00:18.822Z,23.80
2018-11-05T12:02:48.669Z,21.93
2018-11-05T12:05:17.638Z,20.60
2018-11-05T12:07:46.319Z,18.07
2018-11-05T12:10:18.695Z,21.97
2018-11-05T12:12:47.547Z,20.63
2018-11-05T12:15:17.367Z,19.50
2018-11-05T12:17:47.108Z,23.00
2018-11-05T12:20:17.247Z,21.93
2018-11-05T12:22:46.944Z,22.70
2018-11-05T12:25:16.201Z,27.10
2018-11-05T12:27:44.993Z,21.53
2018-11-05T12:30:16.431Z,20.87
2018-11-05T12:32:46.323Z,20.93
2018-11-05T12:35:15.907Z,17.17
2018-11-05T12:37:45.893Z,24.70
2018-11-05T12:40:16.353Z,21.10
2018-11-05T12:42:46.476Z,21.20
2018-11-05T12:45:15.730Z,25.53
2018-11-05T12:47:44.450Z,20.57
2018-11-05T12:50:16.381Z,19.87
2018-11-05T12:52:46.634Z,20.10
2018-11-05T12:55:15.386Z,22.87
2018-11-05T12:57:44.311Z,20.47
2018-11-05T13:00:15.144Z,23.87
2018-11-05T13:02:44.102Z,19.53
2018-11-05T13:05:13.737Z,23.33
2018-11-05T13:07:44.056Z,25.00
2018-11-05T13:10:14.073Z,25.37
2018-11-05T13:12:42.989Z,23.40
2018-11-05T13:15:13.722Z,21.07
2018-11-05T13:17:42.715Z,26.27
2018-11-05T13:20:17.087Z,21.43
2018-11-05T13:22:45.861Z,17.43
2018-11-05T13:25:15.128Z,19.53
2018-11-05T13:27:45.209Z,18.60
2018-11-05T13:30:15.278Z,18.57
2018-11-05T13:32:44.898Z,18.80
2018-11-05T13:35:15.440Z,20.40
2018-11-05T13:37:44.687Z,21.93
2018-11-05T13:40:16.501Z,25.53
2018-11-05T13:42:47.083Z,16.37
2018-11-05T13:45:16.488Z,23.80
2018-11-05T13:47:45.985Z,19.83
2018-11-05T13:50:14.764Z,21.80
2018-11-05T13:52:44.819Z,21.23
2018-11-05T13:55:15.637Z,23.40
2018-11-05T13:57:46.984Z,18.70
2018-11-05T14:00:19.342Z,24.47
2018-11-05T14:02:48.275Z,19.80
2018-11-05T14:05:17.421Z,24.20
2018-11-05T14:07:46.931Z,24.03
2018-11-05T14:10:22.538Z,21.83
2018-11-05T14:12:51.885Z,20.03
2018-11-05T14:15:20.876Z,25.90
2018-11-05T14:17:49.752Z,22.37
2018-11-05T14:20:19.880Z,30.83
2018-11-05T14:22:49.262Z,34.10
2018-11-05T14:25:22.275Z,25.53
2018-11-05T14:27:52.489Z,23.23
2018-11-05T14:30:21.068Z,28.05
2018-11-05T14:32:51.413Z,22.93
2018-11-05T14:35:20.475Z,23.20
2018-11-05T14:37:49.723Z,25.10
2018-11-05T14:40:19.122Z,25.40
2018-11-05T14:42:48.270Z,26.90
2018-11-05T14:45:18.650Z,22.80
2018-11-05T14:47:48.026Z,30.43
2018-11-05T14:50:18.371Z,27.00
2018-11-05T14:52:47.158Z,29.70
2018-11-05T14:55:17.652Z,22.13
2018-11-05T14:57:47.474Z,24.27
2018-11-05T15:00:19.624Z,28.75
2018-11-05T15:02:49.296Z,31.73
2018-11-05T15:05:18.143Z,31.13
2018-11-05T15:07:47.585Z,26.83
2018-11-05T15:10:17.676Z,26.73
2018-11-05T15:12:46.581Z,25.30
2018-11-05T15:15:15.907Z,30.75
2018-11-05T15:17:45.190Z,37.53
2018-11-05T15:20:16.304Z,31.07
2018-11-05T15:22:44.832Z,28.43
2018-11-05T15:25:13.985Z,32.67
2018-11-05T15:27:42.855Z,28.97
2018-11-05T15:30:14.328Z,32.05
2018-11-05T15:32:43.997Z,27.77
2018-11-05T15:35:12.707Z,24.23
2018-11-05T15:37:42.525Z,34.20
2018-11-05T15:40:16.668Z,31.95
2018-11-05T15:42:45.520Z,36.80
2018-11-05T15:45:16.126Z,28.60
2018-11-05T15:47:45.019Z,31.05
2018-11-05T15:50:16.344Z,38.50
2018-11-05T15:52:46.047Z,29.00
2018-11-05T15:55:14.814Z,41.40
2018-11-05T15:57:44.045Z,27.05
2018-11-05T16:00:23.592Z,32.53
2018-11-05T16:02:54.154Z,33.98
2018-11-05T16:05:22.819Z,32.88
2018-11-05T16:07:51.489Z,40.30
2018-11-05T16:10:20.186Z,37.33
2018-11-05T16:12:49.377Z,29.65
2018-11-05T16:15:18.075Z,41.20
2018-11-05T16:17:47.021Z,32.35
2018-11-05T16:20:17.191Z,37.85
2018-11-05T16:22:46.885Z,45.80
2018-11-05T16:25:16.042Z,37.73
2018-11-05T16:27:45.583Z,38.48
2018-11-05T16:30:16.310Z,42.95
2018-11-05T16:32:45.806Z,39.05
2018-11-05T16:35:14.830Z,39.90
2018-11-05T16:37:44.025Z,45.52
2018-11-05T16:40:14.790Z,36.48
2018-11-05T16:42:44.288Z,37.70
2018-11-05T16:45:13.047Z,36.45
2018-11-05T16:47:42.249Z,37.95
2018-11-05T16:50:20.339Z,42.65
2018-11-05T16:52:49.270Z,41.60
2018-11-05T16:55:18.349Z,42.70
2018-11-05T16:57:47.313Z,39.50
2018-11-05T17:00:16.398Z,37.65
2018-11-05T17:02:45.809Z,49.33
2018-11-05T17:05:14.495Z,36.55
2018-11-05T17:07:43.391Z,35.08
2018-11-05T17:10:13.269Z,44.30
2018-11-05T17:12:42.729Z,42.80
2018-11-05T17:15:13.121Z,38.73
2018-11-05T17:17:42.363Z,43.60
2018-11-05T17:20:14.639Z,35.58
2018-11-05T17:22:44.246Z,36.77
2018-11-05T17:25:13.741Z,34.83
2018-11-05T17:27:43.071Z,38.38
2018-11-05T17:30:14.880Z,38.98
2018-11-05T17:32:44.395Z,41.53
2018-11-05T17:35:13.690Z,41.25
2018-11-05T17:37:42.654Z,42.10
2018-11-05T17:40:13.315Z,36.95
2018-11-05T17:42:42.617Z,42.75
2018-11-05T17:45:13.407Z,51.37
2018-11-05T17:47:42.749Z,40.73
2018-11-05T17:50:14.099Z,36.80
2018-11-05T17:52:43.272Z,32.48
2018-11-05T17:55:12.583Z,43.90
2018-11-05T17:57:42.482Z,39.20
2018-11-05T18:00:14.816Z,44.27
2018-11-05T18:02:43.721Z,39.08
2018-11-05T18:05:12.625Z,36.83
2018-11-05T18:07:42.284Z,44.13
2018-11-05T18:10:11.042Z,38.65
2018-11-05T18:12:40.359Z,43.92
2018-11-05T18:15:11.030Z,38.85
2018-11-05T18:17:40.914Z,48.28
2018-11-05T18:20:11.648Z,42.98
2018-11-05T18:22:40.510Z,40.45
2018-11-05T18:25:12.337Z,50.88
2018-11-05T18:27:41.403Z,45.33
2018-11-05T18:30:10.810Z,49.13
2018-11-05T18:32:39.785Z,44.88
2018-11-05T18:35:11.422Z,44.40
2018-11-05T18:37:40.568Z,42.48
2018-11-05T18:40:13.193Z,40.58
2018-11-05T18:42:42.510Z,44.55
2018-11-05T18:45:11.486Z,47.15
2018-11-05T18:47:40.568Z,56.15
2018-11-05T18:50:13.184Z,62.40
2018-11-05T18:52:42.432Z,45.45
2018-11-05T18:55:13.770Z,45.50
2018-11-05T18:57:42.724Z,45.15
2018-11-05T19:00:17.920Z,46.92
2018-11-05T19:02:47.402Z,41.53
2018-11-05T19:05:16.476Z,44.45
2018-11-05T19:07:45.267Z,46.85
2018-11-05T19:10:14.202Z,47.93
2018-11-05T19:12:42.986Z,46.35
2018-11-05T19:15:13.506Z,43.60
2018-11-05T19:17:43.340Z,45.35
2018-11-05T19:20:13.048Z,48.10
2018-11-05T19:22:42.588Z,45.92
2018-11-05T19:25:13.932Z,52.60
2018-11-05T19:27:43.485Z,54.38
2018-11-05T19:30:25.254Z,45.50
2018-11-05T19:32:54.062Z,57.08
2018-11-05T19:35:23.726Z,51.85
2018-11-05T19:37:52.407Z,50.95
2018-11-05T19:40:21.553Z,52.75
2018-11-05T19:42:51.086Z,54.35
2018-11-05T19:45:21.327Z,56.37
2018-11-05T19:47:50.115Z,56.92
2018-11-05T19:50:20.233Z,52.67
2018-11-05T19:52:50.182Z,46.60
2018-11-05T19:55:19.774Z,49.83
2018-11-05T19:57:49.172Z,41.58
2018-11-05T20:00:20.740Z,38.67
2018-11-05T20:02:50.341Z,43.40
2018-11-05T20:05:19.652Z,44.50
2018-11-05T20:07:51.818Z,40.63
2018-11-05T20:10:20.684Z,47.73
2018-11-05T20:12:49.600Z,44.23
2018-11-05T20:15:18.792Z,46.40
2018-11-05T20:17:48.450Z,49.85
2018-11-05T20:20:19.789Z,50.20
2018-11-05T20:22:49.022Z,50.40
2018-11-05T20:25:18.044Z,58.28
2018-11-05T20:27:47.083Z,51.77
2018-11-05T20:30:18.104Z,56.10
2018-11-05T20:32:48.634Z,46.73
2018-11-05T20:35:18.098Z,59.75
2018-11-05T20:37:47.099Z,49.30
2018-11-05T20:40:18.427Z,53.25
2018-11-05T20:42:48.612Z,43.52
2018-11-05T20:45:18.951Z,43.10
2018-11-05T20:47:47.965Z,54.63
2018-11-05T20:50:17.387Z,46.30
2018-11-05T20:52:46.069Z,45.20
2018-11-05T20:55:16.508Z,47.93
2018-11-05T20:57:45.599Z,46.92
2018-11-05T21:00:17.207Z,51.30
2018-11-05T21:02:46.067Z,47.30
2018-11-05T21:05:14.981Z,47.93
2018-11-05T21:07:44.379Z,41.53
2018-11-05T21:10:14.225Z,64.50
2018-11-05T21:12:43.497Z,69.40
2018-11-05T21:15:15.527Z,75.57
2018-11-05T21:17:45.146Z,50.43
2018-11-05T21:20:14.399Z,50.08
2018-11-05T21:22:43.442Z,54.23
2018-11-05T21:25:11.939Z,55.00
2018-11-05T21:27:41.837Z,50.98
2018-11-05T21:30:12.791Z,69.82
2018-11-05T21:32:42.055Z,45.25
2018-11-05T21:35:13.154Z,50.03
2018-11-05T21:37:42.138Z,48.75
2018-11-05T21:40:12.150Z,50.00
2018-11-05T21:42:40.939Z,55.35
2018-11-05T21:45:11.424Z,46.55
2018-11-05T21:47:40.494Z,48.52
2018-11-05T21:50:10.955Z,41.40
2018-11-05T21:52:40.670Z,49.38
2018-11-05T21:55:09.598Z,48.85
2018-11-05T21:57:40.118Z,46.25
2018-11-05T22:00:12.036Z,42.35
2018-11-05T22:02:46.181Z,46.45
2018-11-05T22:05:15.476Z,46.55
2018-11-05T22:07:44.419Z,44.55
2018-11-05T22:10:13.724Z,44.33
2018-11-05T22:12:42.761Z,42.67
2018-11-05T22:15:11.781Z,38.95
2018-11-05T22:17:40.448Z,45.92
2018-11-05T22:20:13.081Z,42.67
2018-11-05T22:22:41.885Z,41.92
2018-11-05T22:25:11.184Z,42.35
2018-11-05T22:27:40.347Z,36.95
2018-11-05T22:30:10.523Z,37.20
2018-11-05T22:32:39.312Z,47.10
2018-11-05T22:35:08.680Z,43.45
2018-11-05T22:37:38.257Z,52.90
2018-11-05T22:40:10.006Z,39.40
2018-11-05T22:42:38.709Z,45.75
2018-11-05T22:45:07.925Z,45.80
2018-11-05T22:47:36.752Z,49.18
2018-11-05T22:50:05.926Z,39.20
2018-11-05T22:52:34.818Z,46.50
2018-11-05T22:55:03.561Z,42.40
2018-11-05T22:57:32.270Z,49.63
2018-11-05T23:00:01.175Z,42.33
2018-11-05T23:02:29.880Z,46.75
2018-11-05T23:04:58.570Z,48.30
2018-11-05T23:07:27.250Z,40.35
2018-11-05T23:09:55.928Z,43.70
2018-11-05T23:12:24.591Z,38.45
2018-11-05T23:14:53.355Z,45.30
2018-11-05T23:17:22.100Z,44.15
2018-11-05T23:19:50.802Z,48.30
2018-11-05T23:22:19.507Z,42.85
2018-11-05T23:24:48.247Z,41.60
2018-11-05T23:27:17.400Z,47.17
2018-11-05T23:29:46.379Z,41.18
2018-11-05T23:32:15.775Z,43.60
2018-11-05T23:34:46.453Z,41.00
2018-11-05T23:37:15.318Z,37.42
2018-11-05T23:39:44.210Z,40.33
2018-11-05T23:42:13.001Z,44.30
2018-11-05T23:44:42.173Z,37.93
2018-11-05T23:47:11.061Z,34.30
2018-11-05T23:49:39.888Z,39.27
2018-11-05T23:52:08.721Z,46.73
2018-11-05T23:54:37.340Z,43.78
2018-11-05T23:57:06.395Z,44.77
2018-11-05T23:59:35.306Z,41.20
